Strona główna
METAR-TAF:

METAR-TAF

Lotnisko :

Port lotniczy Dortmund

Dortmund, Niemcy

Szerokość geograficzna: 51-31N, Długość geograficzna: 007-37E, wysokość: 127 m

Aktualna obserwacja pogody

Raport powstał 25 minut temu, godzina 04:50 UTC
Wiatr 4 kt od północno-północny wschód, zmienny między północ i północny wschód
Temperatura 9°C
Wilgotność 87%
Ciśnienie 1034 hPa
Widzialność 10 km lub więcej
Brak chmur poniżej 1500 m i brak chmur cumulonimbus

METAR: EDLW 280450Z 02004KT 350V050 CAVOK 09/07 Q1034

czas: 07:15 (05:15 UTC)

Prognoza

Raport powstał 25 minut temu, godzina 04:50 UTC
Prognoza ważna od 28 godzina 05 UTC do 28 godzina 24 UTC
Wiatr 4 kt od północno-północny wschód
Widzialność 10 km lub więcej
Brak chmur poniżej 1500 m i brak chmur cumulonimbus
Stopniowe zmiany
od 28 godzina 08 UTC do 28 godzina 11 UTC
Wiatr 9 kt od północno-północny wschód
Stopniowe zmiany
od 28 godzina 18 UTC do 28 godzina 21 UTC
Wiatr 4 kt od północny wschód

TAF: EDLW 280450Z 2805/2824 02004KT CAVOK BECMG 2808/2811 02009KT BECMG 2818/2821 04004KT

Obserwacja i prognoza pogody dla ponad 4000 lotnisk (raport METAR i TAF).

Dostępne stacje oznaczono żółtymi i czerwonymi punktami na mapie.

Najedź kursorem aby zobaczyć nazwę stacji.

Kliknij aby zobaczyć obserwacje i prognozy pogody.

Aby zmienić mapę: kliknij na zielony przycisk z czarnym krzyżykiem, aby powiększyć; na zielony przycisk z myślnikiem, aby pomniejszyć; na zielone strzałki, aby przejść do map sąsiednich.


METAR-TAF: